ROMMA est une association bénévole à but non lucratif. Votre soutien est indispensable : ADHERER à ROMMA ou FAIRE un DON

Engins - (38, Isère)

Vercors (906 m)   Longitude: 05° 37' E   Latitude: 45° 11' N Station partenaire n°139
 

Détail journalier du     <<     >>

Température Precipitation Humidité Vent Dir Rafale Dir. rafale Ensol.
Heure (°C) (mm) (%) (km/h) (km/h) (min)
01:00 8.50815SSO11OSO0
02:00 9.30763SO8S0
03:00 10.30706SSO24SSO0
04:00 9.30774ONO15SSE0
05:00 8.80783NO13S0
06:00 8.60802OSO8SSE0
07:00 9.10813O13SSO0
08:00 8.80803OSO10SSO0
09:00 9.70787SO16SO0
10:00 13.50734SO13SSO45
11:00 15.80683SSO15SSE55
12:00 14.80723NE10N35
13:00 15.40732SE8S15
14:00 16.40693ESE15N20
15:00 17.10664N18SSE10
16:00 16.10693N8NNO5
17:00 14.70703N10SO0
18:00 14.20742O10SO0
19:00 13.40752ONO13O0
20:00 13.30764NNO8NNO0
21:00 13.40753O10O0
22:00 13.30753O6O0
23:00 12.90803NO10N0
minuit 11.70.4894ONO10OSO0

Graphique du 17-10-2019

 

Serveur OMMA